sensor_id;sensor_type;location;lat;lon;timestamp;temperature;humidity
13458;DHT22;6801;53.018;11.560;2023-04-09T00:02:17;8.70;73.00
13458;DHT22;6801;53.018;11.560;2023-04-09T00:04:44;8.70;72.90
13458;DHT22;6801;53.018;11.560;2023-04-09T00:07:11;8.60;72.80
13458;DHT22;6801;53.018;11.560;2023-04-09T00:09:39;8.60;72.70
13458;DHT22;6801;53.018;11.560;2023-04-09T00:12:06;8.70;72.60
13458;DHT22;6801;53.018;11.560;2023-04-09T00:14:33;8.70;72.60
13458;DHT22;6801;53.018;11.560;2023-04-09T00:17:00;8.60;72.60
13458;DHT22;6801;53.018;11.560;2023-04-09T00:19:27;8.60;72.50
13458;DHT22;6801;53.018;11.560;2023-04-09T00:21:54;8.60;72.70
13458;DHT22;6801;53.018;11.560;2023-04-09T00:24:21;8.60;72.80
13458;DHT22;6801;53.018;11.560;2023-04-09T00:26:49;8.60;72.90
13458;DHT22;6801;53.018;11.560;2023-04-09T00:29:18;8.60;72.80
13458;DHT22;6801;53.018;11.560;2023-04-09T00:31:45;8.60;72.70
13458;DHT22;6801;53.018;11.560;2023-04-09T00:34:12;8.60;72.60
13458;DHT22;6801;53.018;11.560;2023-04-09T00:36:39;8.60;72.50
13458;DHT22;6801;53.018;11.560;2023-04-09T00:39:06;8.60;72.60
13458;DHT22;6801;53.018;11.560;2023-04-09T00:41:33;8.60;72.60
13458;DHT22;6801;53.018;11.560;2023-04-09T00:44:01;8.60;72.50
13458;DHT22;6801;53.018;11.560;2023-04-09T00:46:28;8.60;72.50
13458;DHT22;6801;53.018;11.560;2023-04-09T00:48:55;8.60;72.40
13458;DHT22;6801;53.018;11.560;2023-04-09T00:51:22;8.60;72.40
13458;DHT22;6801;53.018;11.560;2023-04-09T00:53:49;8.60;72.30
13458;DHT22;6801;53.018;11.560;2023-04-09T00:56:17;8.60;72.30
13458;DHT22;6801;53.018;11.560;2023-04-09T00:58:46;8.50;72.30
13458;DHT22;6801;53.018;11.560;2023-04-09T01:01:14;8.60;72.30
13458;DHT22;6801;53.018;11.560;2023-04-09T01:03:41;8.50;72.30
13458;DHT22;6801;53.018;11.560;2023-04-09T01:06:11;8.50;72.30
13458;DHT22;6801;53.018;11.560;2023-04-09T01:08:46;8.50;72.30
13458;DHT22;6801;53.018;11.560;2023-04-09T01:11:20;8.50;72.40
13458;DHT22;6801;53.018;11.560;2023-04-09T01:13:57;8.50;72.40
13458;DHT22;6801;53.018;11.560;2023-04-09T01:16:28;8.50;72.30
13458;DHT22;6801;53.018;11.560;2023-04-09T01:19:00;8.50;72.20
13458;DHT22;6801;53.018;11.560;2023-04-09T01:21:31;8.50;72.30
13458;DHT22;6801;53.018;11.560;2023-04-09T01:24:18;8.50;72.20
13458;DHT22;6801;53.018;11.560;2023-04-09T01:26:54;8.50;72.30
13458;DHT22;6801;53.018;11.560;2023-04-09T01:29:31;8.50;72.20
13458;DHT22;6801;53.018;11.560;2023-04-09T01:31:59;8.50;72.20
13458;DHT22;6801;53.018;11.560;2023-04-09T01:34:28;8.50;72.30
13458;DHT22;6801;53.018;11.560;2023-04-09T01:36:58;8.50;72.30
13458;DHT22;6801;53.018;11.560;2023-04-09T01:39:26;8.50;72.30
13458;DHT22;6801;53.018;11.560;2023-04-09T01:41:54;8.50;72.30
13458;DHT22;6801;53.018;11.560;2023-04-09T01:44:32;8.50;72.30
13458;DHT22;6801;53.018;11.560;2023-04-09T01:46:59;8.50;72.30
13458;DHT22;6801;53.018;11.560;2023-04-09T01:49:27;8.50;72.30
13458;DHT22;6801;53.018;11.560;2023-04-09T01:51:55;8.50;72.40
13458;DHT22;6801;53.018;11.560;2023-04-09T01:54:22;8.40;72.40
13458;DHT22;6801;53.018;11.560;2023-04-09T01:56:49;8.40;72.40
13458;DHT22;6801;53.018;11.560;2023-04-09T01:59:16;8.40;72.50
13458;DHT22;6801;53.018;11.560;2023-04-09T02:01:46;8.40;72.40
13458;DHT22;6801;53.018;11.560;2023-04-09T02:04:21;8.40;72.40
13458;DHT22;6801;53.018;11.560;2023-04-09T02:06:54;8.40;72.40
13458;DHT22;6801;53.018;11.560;2023-04-09T02:09:23;8.40;72.30
13458;DHT22;6801;53.018;11.560;2023-04-09T02:11:54;8.40;72.30
13458;DHT22;6801;53.018;11.560;2023-04-09T02:14:24;8.40;72.30
13458;DHT22;6801;53.018;11.560;2023-04-09T02:16:53;8.30;72.30
13458;DHT22;6801;53.018;11.560;2023-04-09T02:19:21;8.40;72.30
13458;DHT22;6801;53.018;11.560;2023-04-09T02:21:47;8.30;72.30
13458;DHT22;6801;53.018;11.560;2023-04-09T02:24:14;8.40;72.30
13458;DHT22;6801;53.018;11.560;2023-04-09T02:26:41;8.30;72.30
13458;DHT22;6801;53.018;11.560;2023-04-09T02:29:08;8.40;72.30
13458;DHT22;6801;53.018;11.560;2023-04-09T02:31:35;8.30;72.30
13458;DHT22;6801;53.018;11.560;2023-04-09T02:34:03;8.30;72.30
13458;DHT22;6801;53.018;11.560;2023-04-09T02:36:31;8.30;72.30
13458;DHT22;6801;53.018;11.560;2023-04-09T02:38:58;8.30;72.30
13458;DHT22;6801;53.018;11.560;2023-04-09T02:41:25;8.30;72.30
13458;DHT22;6801;53.018;11.560;2023-04-09T02:43:52;8.30;72.30
13458;DHT22;6801;53.018;11.560;2023-04-09T02:46:20;8.30;72.40
13458;DHT22;6801;53.018;11.560;2023-04-09T02:48:47;8.30;72.30
13458;DHT22;6801;53.018;11.560;2023-04-09T02:51:15;8.30;72.30
13458;DHT22;6801;53.018;11.560;2023-04-09T02:53:42;8.30;72.30
13458;DHT22;6801;53.018;11.560;2023-04-09T02:56:10;8.20;72.30
13458;DHT22;6801;53.018;11.560;2023-04-09T02:58:37;8.20;72.30
13458;DHT22;6801;53.018;11.560;2023-04-09T03:01:04;8.20;72.20
13458;DHT22;6801;53.018;11.560;2023-04-09T03:03:31;8.20;72.30
13458;DHT22;6801;53.018;11.560;2023-04-09T03:05:58;8.20;72.20
13458;DHT22;6801;53.018;11.560;2023-04-09T03:08:26;8.20;72.20
13458;DHT22;6801;53.018;11.560;2023-04-09T03:10:53;8.20;72.20
13458;DHT22;6801;53.018;11.560;2023-04-09T03:13:20;8.20;72.20
13458;DHT22;6801;53.018;11.560;2023-04-09T03:15:50;8.20;72.30
13458;DHT22;6801;53.018;11.560;2023-04-09T03:18:17;8.10;72.20
13458;DHT22;6801;53.018;11.560;2023-04-09T03:20:44;8.10;72.20
13458;DHT22;6801;53.018;11.560;2023-04-09T03:23:12;8.10;72.20
13458;DHT22;6801;53.018;11.560;2023-04-09T03:25:45;8.10;72.20
13458;DHT22;6801;53.018;11.560;2023-04-09T03:28:15;8.10;72.10
13458;DHT22;6801;53.018;11.560;2023-04-09T03:30:51;8.10;72.10
13458;DHT22;6801;53.018;11.560;2023-04-09T03:33:18;8.00;72.20
13458;DHT22;6801;53.018;11.560;2023-04-09T03:35:50;8.10;72.30
13458;DHT22;6801;53.018;11.560;2023-04-09T03:38:23;8.00;72.40
13458;DHT22;6801;53.018;11.560;2023-04-09T03:40:52;8.00;72.30
13458;DHT22;6801;53.018;11.560;2023-04-09T03:43:19;8.00;72.40
13458;DHT22;6801;53.018;11.560;2023-04-09T03:45:50;8.00;72.50
13458;DHT22;6801;53.018;11.560;2023-04-09T03:48:25;8.00;72.50
13458;DHT22;6801;53.018;11.560;2023-04-09T03:50:53;8.00;72.50
13458;DHT22;6801;53.018;11.560;2023-04-09T03:53:34;8.00;72.40
13458;DHT22;6801;53.018;11.560;2023-04-09T03:56:06;8.00;72.40
13458;DHT22;6801;53.018;11.560;2023-04-09T03:58:34;8.00;72.40
13458;DHT22;6801;53.018;11.560;2023-04-09T04:01:02;8.00;72.40
13458;DHT22;6801;53.018;11.560;2023-04-09T04:03:40;8.00;72.40
13458;DHT22;6801;53.018;11.560;2023-04-09T04:06:32;8.00;72.40
13458;DHT22;6801;53.018;11.560;2023-04-09T04:09:07;8.00;72.40
13458;DHT22;6801;53.018;11.560;2023-04-09T04:12:11;7.90;72.40
13458;DHT22;6801;53.018;11.560;2023-04-09T04:15:01;7.90;72.40
13458;DHT22;6801;53.018;11.560;2023-04-09T04:17:47;7.90;72.40
13458;DHT22;6801;53.018;11.560;2023-04-09T04:20:32;7.90;72.40
13458;DHT22;6801;53.018;11.560;2023-04-09T04:23:04;7.90;72.50
13458;DHT22;6801;53.018;11.560;2023-04-09T04:25:34;7.90;72.60
13458;DHT22;6801;53.018;11.560;2023-04-09T04:28:02;7.90;72.70
13458;DHT22;6801;53.018;11.560;2023-04-09T04:30:36;7.90;72.70
13458;DHT22;6801;53.018;11.560;2023-04-09T04:33:06;7.90;72.70
13458;DHT22;6801;53.018;11.560;2023-04-09T04:35:48;7.90;72.70
13458;DHT22;6801;53.018;11.560;2023-04-09T04:38:35;7.90;72.60
13458;DHT22;6801;53.018;11.560;2023-04-09T04:41:05;7.90;72.60
13458;DHT22;6801;53.018;11.560;2023-04-09T04:43:37;7.90;72.70
13458;DHT22;6801;53.018;11.560;2023-04-09T04:46:06;8.00;72.70
13458;DHT22;6801;53.018;11.560;2023-04-09T04:48:33;7.90;72.70
13458;DHT22;6801;53.018;11.560;2023-04-09T04:51:01;8.00;72.80
13458;DHT22;6801;53.018;11.560;2023-04-09T04:53:38;7.90;72.90
13458;DHT22;6801;53.018;11.560;2023-04-09T04:56:12;7.90;72.90
13458;DHT22;6801;53.018;11.560;2023-04-09T04:58:42;7.90;73.10
13458;DHT22;6801;53.018;11.560;2023-04-09T05:01:09;7.90;73.10
13458;DHT22;6801;53.018;11.560;2023-04-09T05:03:36;7.90;73.10
13458;DHT22;6801;53.018;11.560;2023-04-09T05:06:20;7.90;73.20
13458;DHT22;6801;53.018;11.560;2023-04-09T05:08:47;8.00;73.20
13458;DHT22;6801;53.018;11.560;2023-04-09T05:11:14;8.00;73.10
13458;DHT22;6801;53.018;11.560;2023-04-09T05:13:45;8.00;73.10
13458;DHT22;6801;53.018;11.560;2023-04-09T05:16:16;8.00;73.10
13458;DHT22;6801;53.018;11.560;2023-04-09T05:18:45;8.00;73.30
13458;DHT22;6801;53.018;11.560;2023-04-09T05:21:12;8.00;73.20
13458;DHT22;6801;53.018;11.560;2023-04-09T05:23:43;8.00;73.20
13458;DHT22;6801;53.018;11.560;2023-04-09T05:26:10;8.00;73.30
13458;DHT22;6801;53.018;11.560;2023-04-09T05:28:50;8.00;73.30
13458;DHT22;6801;53.018;11.560;2023-04-09T05:31:20;8.00;73.30
13458;DHT22;6801;53.018;11.560;2023-04-09T05:33:54;8.00;73.40
13458;DHT22;6801;53.018;11.560;2023-04-09T05:36:30;8.00;73.40
13458;DHT22;6801;53.018;11.560;2023-04-09T05:38:58;8.00;73.70
13458;DHT22;6801;53.018;11.560;2023-04-09T05:41:25;8.00;73.80
13458;DHT22;6801;53.018;11.560;2023-04-09T05:44:06;8.10;74.20
13458;DHT22;6801;53.018;11.560;2023-04-09T05:46:33;8.10;74.40
13458;DHT22;6801;53.018;11.560;2023-04-09T05:49:00;8.10;74.70
13458;DHT22;6801;53.018;11.560;2023-04-09T05:51:29;8.10;74.50
13458;DHT22;6801;53.018;11.560;2023-04-09T05:53:56;8.10;74.50
13458;DHT22;6801;53.018;11.560;2023-04-09T05:56:24;8.10;74.40
13458;DHT22;6801;53.018;11.560;2023-04-09T05:58:55;8.10;74.30
13458;DHT22;6801;53.018;11.560;2023-04-09T06:01:24;8.10;74.30
13458;DHT22;6801;53.018;11.560;2023-04-09T06:03:51;8.10;74.00
13458;DHT22;6801;53.018;11.560;2023-04-09T06:06:19;8.20;73.90
13458;DHT22;6801;53.018;11.560;2023-04-09T06:08:46;8.20;73.80
13458;DHT22;6801;53.018;11.560;2023-04-09T06:11:13;8.20;74.10
13458;DHT22;6801;53.018;11.560;2023-04-09T06:13:40;8.20;74.30
13458;DHT22;6801;53.018;11.560;2023-04-09T06:16:08;8.20;74.40
13458;DHT22;6801;53.018;11.560;2023-04-09T06:18:36;8.20;74.20
13458;DHT22;6801;53.018;11.560;2023-04-09T06:21:04;8.20;74.10
13458;DHT22;6801;53.018;11.560;2023-04-09T06:23:31;8.20;73.90
13458;DHT22;6801;53.018;11.560;2023-04-09T06:25:59;8.30;74.00
13458;DHT22;6801;53.018;11.560;2023-04-09T06:28:27;8.30;74.10
13458;DHT22;6801;53.018;11.560;2023-04-09T06:30:56;8.30;73.80
13458;DHT22;6801;53.018;11.560;2023-04-09T06:33:23;8.30;74.20
13458;DHT22;6801;53.018;11.560;2023-04-09T06:35:52;8.40;74.50
13458;DHT22;6801;53.018;11.560;2023-04-09T06:38:19;8.40;74.70
13458;DHT22;6801;53.018;11.560;2023-04-09T06:40:46;8.40;74.90
13458;DHT22;6801;53.018;11.560;2023-04-09T06:43:13;8.50;74.80
13458;DHT22;6801;53.018;11.560;2023-04-09T06:45:48;8.50;74.50
13458;DHT22;6801;53.018;11.560;2023-04-09T06:48:15;8.50;74.20
13458;DHT22;6801;53.018;11.560;2023-04-09T06:50:43;8.50;74.00
13458;DHT22;6801;53.018;11.560;2023-04-09T06:53:11;8.50;73.80
13458;DHT22;6801;53.018;11.560;2023-04-09T06:55:38;8.50;73.90
13458;DHT22;6801;53.018;11.560;2023-04-09T06:58:05;8.40;73.80
13458;DHT22;6801;53.018;11.560;2023-04-09T07:00:32;8.50;74.00
13458;DHT22;6801;53.018;11.560;2023-04-09T07:02:59;8.50;74.00
13458;DHT22;6801;53.018;11.560;2023-04-09T07:05:26;8.50;73.80
13458;DHT22;6801;53.018;11.560;2023-04-09T07:07:53;8.50;73.60
13458;DHT22;6801;53.018;11.560;2023-04-09T07:10:21;8.50;73.50
13458;DHT22;6801;53.018;11.560;2023-04-09T07:12:48;8.50;73.30
13458;DHT22;6801;53.018;11.560;2023-04-09T07:15:15;8.50;73.30
13458;DHT22;6801;53.018;11.560;2023-04-09T07:17:42;8.50;73.50
13458;DHT22;6801;53.018;11.560;2023-04-09T07:20:10;8.50;73.50
13458;DHT22;6801;53.018;11.560;2023-04-09T07:22:37;8.60;73.70
13458;DHT22;6801;53.018;11.560;2023-04-09T07:25:05;8.60;73.80
13458;DHT22;6801;53.018;11.560;2023-04-09T07:27:34;8.60;73.70
13458;DHT22;6801;53.018;11.560;2023-04-09T07:30:01;8.60;73.50
13458;DHT22;6801;53.018;11.560;2023-04-09T07:32:28;8.60;73.40
13458;DHT22;6801;53.018;11.560;2023-04-09T07:34:55;8.60;73.30
13458;DHT22;6801;53.018;11.560;2023-04-09T07:37:24;8.70;73.30
13458;DHT22;6801;53.018;11.560;2023-04-09T07:39:51;8.70;73.20
13458;DHT22;6801;53.018;11.560;2023-04-09T07:42:18;8.70;73.30
13458;DHT22;6801;53.018;11.560;2023-04-09T07:44:47;8.70;73.20
13458;DHT22;6801;53.018;11.560;2023-04-09T07:47:14;8.80;73.10
13458;DHT22;6801;53.018;11.560;2023-04-09T07:49:41;8.80;73.30
13458;DHT22;6801;53.018;11.560;2023-04-09T07:52:08;8.80;73.40
13458;DHT22;6801;53.018;11.560;2023-04-09T07:54:35;8.80;73.50
13458;DHT22;6801;53.018;11.560;2023-04-09T07:57:02;8.90;73.60
13458;DHT22;6801;53.018;11.560;2023-04-09T07:59:29;8.90;73.40
13458;DHT22;6801;53.018;11.560;2023-04-09T08:01:58;8.90;73.20
13458;DHT22;6801;53.018;11.560;2023-04-09T08:04:25;8.90;73.10
13458;DHT22;6801;53.018;11.560;2023-04-09T08:06:52;9.00;73.10
13458;DHT22;6801;53.018;11.560;2023-04-09T08:09:19;9.00;73.20
13458;DHT22;6801;53.018;11.560;2023-04-09T08:11:47;9.00;73.20
13458;DHT22;6801;53.018;11.560;2023-04-09T08:14:15;9.00;73.10
13458;DHT22;6801;53.018;11.560;2023-04-09T08:16:44;9.00;73.00
13458;DHT22;6801;53.018;11.560;2023-04-09T08:19:14;9.00;73.00
13458;DHT22;6801;53.018;11.560;2023-04-09T08:21:42;9.10;73.00
13458;DHT22;6801;53.018;11.560;2023-04-09T08:24:10;9.10;73.20
13458;DHT22;6801;53.018;11.560;2023-04-09T08:26:37;9.10;73.10
13458;DHT22;6801;53.018;11.560;2023-04-09T08:29:04;9.20;73.10
13458;DHT22;6801;53.018;11.560;2023-04-09T08:31:31;9.20;72.90
13458;DHT22;6801;53.018;11.560;2023-04-09T08:33:58;9.20;72.80
13458;DHT22;6801;53.018;11.560;2023-04-09T08:36:27;9.20;72.70
13458;DHT22;6801;53.018;11.560;2023-04-09T08:38:54;9.30;72.70
13458;DHT22;6801;53.018;11.560;2023-04-09T08:41:22;9.30;72.80
13458;DHT22;6801;53.018;11.560;2023-04-09T08:43:51;9.30;72.60
13458;DHT22;6801;53.018;11.560;2023-04-09T08:46:18;9.40;72.60
13458;DHT22;6801;53.018;11.560;2023-04-09T08:48:46;9.40;72.50
13458;DHT22;6801;53.018;11.560;2023-04-09T08:51:13;9.40;72.40
13458;DHT22;6801;53.018;11.560;2023-04-09T08:53:43;9.50;72.40
13458;DHT22;6801;53.018;11.560;2023-04-09T08:56:12;9.40;72.40
13458;DHT22;6801;53.018;11.560;2023-04-09T08:58:41;9.50;72.30
13458;DHT22;6801;53.018;11.560;2023-04-09T09:01:19;9.50;72.30
13458;DHT22;6801;53.018;11.560;2023-04-09T09:03:53;9.50;72.30
13458;DHT22;6801;53.018;11.560;2023-04-09T09:06:21;9.50;72.30
13458;DHT22;6801;53.018;11.560;2023-04-09T09:09:01;9.50;72.20
13458;DHT22;6801;53.018;11.560;2023-04-09T09:11:28;9.60;72.20
13458;DHT22;6801;53.018;11.560;2023-04-09T09:14:03;9.60;72.20
13458;DHT22;6801;53.018;11.560;2023-04-09T09:16:31;9.60;72.30
13458;DHT22;6801;53.018;11.560;2023-04-09T09:19:00;9.70;72.00
13458;DHT22;6801;53.018;11.560;2023-04-09T09:21:28;9.70;71.80
13458;DHT22;6801;53.018;11.560;2023-04-09T09:23:56;9.80;71.90
13458;DHT22;6801;53.018;11.560;2023-04-09T09:26:26;9.80;72.00
13458;DHT22;6801;53.018;11.560;2023-04-09T09:28:56;9.80;71.80
13458;DHT22;6801;53.018;11.560;2023-04-09T09:31:24;9.90;71.50
13458;DHT22;6801;53.018;11.560;2023-04-09T09:33:51;9.90;71.60
13458;DHT22;6801;53.018;11.560;2023-04-09T09:36:31;9.90;71.80
13458;DHT22;6801;53.018;11.560;2023-04-09T09:38:59;9.90;71.70
13458;DHT22;6801;53.018;11.560;2023-04-09T09:41:30;10.00;71.60
13458;DHT22;6801;53.018;11.560;2023-04-09T09:43:57;10.00;71.40
13458;DHT22;6801;53.018;11.560;2023-04-09T09:46:25;10.00;71.60
13458;DHT22;6801;53.018;11.560;2023-04-09T09:48:53;10.00;71.80
13458;DHT22;6801;53.018;11.560;2023-04-09T09:51:24;10.00;71.70
13458;DHT22;6801;53.018;11.560;2023-04-09T09:53:55;10.00;71.60
13458;DHT22;6801;53.018;11.560;2023-04-09T09:56:24;10.10;71.70
13458;DHT22;6801;53.018;11.560;2023-04-09T09:59:05;10.10;71.60
13458;DHT22;6801;53.018;11.560;2023-04-09T10:01:33;10.10;71.50
13458;DHT22;6801;53.018;11.560;2023-04-09T10:04:03;10.10;71.50
13458;DHT22;6801;53.018;11.560;2023-04-09T10:06:31;10.20;71.40
13458;DHT22;6801;53.018;11.560;2023-04-09T10:09:03;10.30;71.20
13458;DHT22;6801;53.018;11.560;2023-04-09T10:11:32;10.30;71.20
13458;DHT22;6801;53.018;11.560;2023-04-09T10:14:01;10.30;71.30
13458;DHT22;6801;53.018;11.560;2023-04-09T10:16:28;10.30;71.30
13458;DHT22;6801;53.018;11.560;2023-04-09T10:18:56;10.40;71.20
13458;DHT22;6801;53.018;11.560;2023-04-09T10:21:31;10.40;71.20
13458;DHT22;6801;53.018;11.560;2023-04-09T10:24:01;10.30;71.10
13458;DHT22;6801;53.018;11.560;2023-04-09T10:26:32;10.40;71.10
13458;DHT22;6801;53.018;11.560;2023-04-09T10:29:05;10.40;71.20
13458;DHT22;6801;53.018;11.560;2023-04-09T10:32:03;10.40;71.20
13458;DHT22;6801;53.018;11.560;2023-04-09T10:34:36;10.50;71.40
13458;DHT22;6801;53.018;11.560;2023-04-09T10:37:06;10.50;71.20
13458;DHT22;6801;53.018;11.560;2023-04-09T10:39:33;10.50;71.00
13458;DHT22;6801;53.018;11.560;2023-04-09T10:42:07;10.50;71.10
13458;DHT22;6801;53.018;11.560;2023-04-09T10:44:39;10.60;71.10
13458;DHT22;6801;53.018;11.560;2023-04-09T10:47:08;10.60;71.10
13458;DHT22;6801;53.018;11.560;2023-04-09T10:49:36;10.60;71.00
13458;DHT22;6801;53.018;11.560;2023-04-09T10:52:05;10.70;70.80
13458;DHT22;6801;53.018;11.560;2023-04-09T10:54:40;10.70;70.70
13458;DHT22;6801;53.018;11.560;2023-04-09T10:57:19;10.70;70.60
13458;DHT22;6801;53.018;11.560;2023-04-09T10:59:49;10.80;70.30
13458;DHT22;6801;53.018;11.560;2023-04-09T11:02:53;10.80;70.20
13458;DHT22;6801;53.018;11.560;2023-04-09T11:05:29;10.90;70.20
13458;DHT22;6801;53.018;11.560;2023-04-09T11:08:04;10.90;70.20
13458;DHT22;6801;53.018;11.560;2023-04-09T11:10:31;10.90;70.20
13458;DHT22;6801;53.018;11.560;2023-04-09T11:12:59;10.90;70.40
13458;DHT22;6801;53.018;11.560;2023-04-09T11:15:27;11.00;70.40
13458;DHT22;6801;53.018;11.560;2023-04-09T11:17:56;11.00;70.10
13458;DHT22;6801;53.018;11.560;2023-04-09T11:20:24;11.00;70.10
13458;DHT22;6801;53.018;11.560;2023-04-09T11:22:53;11.10;70.10
13458;DHT22;6801;53.018;11.560;2023-04-09T11:25:21;11.20;69.90
13458;DHT22;6801;53.018;11.560;2023-04-09T11:27:48;11.30;69.90
13458;DHT22;6801;53.018;11.560;2023-04-09T11:30:15;11.40;69.50
13458;DHT22;6801;53.018;11.560;2023-04-09T11:32:44;11.40;69.50
13458;DHT22;6801;53.018;11.560;2023-04-09T11:35:12;11.50;69.50
13458;DHT22;6801;53.018;11.560;2023-04-09T11:37:41;11.50;69.40
13458;DHT22;6801;53.018;11.560;2023-04-09T11:40:14;11.60;69.30
13458;DHT22;6801;53.018;11.560;2023-04-09T11:42:42;11.50;69.50
13458;DHT22;6801;53.018;11.560;2023-04-09T11:45:10;11.60;69.50
13458;DHT22;6801;53.018;11.560;2023-04-09T11:47:38;11.70;69.40
13458;DHT22;6801;53.018;11.560;2023-04-09T11:50:09;11.80;69.10
13458;DHT22;6801;53.018;11.560;2023-04-09T11:52:36;11.90;68.90
13458;DHT22;6801;53.018;11.560;2023-04-09T11:55:05;11.90;68.90
13458;DHT22;6801;53.018;11.560;2023-04-09T11:57:38;11.90;69.00
13458;DHT22;6801;53.018;11.560;2023-04-09T12:00:08;12.00;68.80
13458;DHT22;6801;53.018;11.560;2023-04-09T12:02:37;12.00;68.90
13458;DHT22;6801;53.018;11.560;2023-04-09T12:05:08;12.00;68.80
13458;DHT22;6801;53.018;11.560;2023-04-09T12:07:36;12.10;68.80
13458;DHT22;6801;53.018;11.560;2023-04-09T12:10:05;12.20;68.80
13458;DHT22;6801;53.018;11.560;2023-04-09T12:12:39;12.30;68.60
13458;DHT22;6801;53.018;11.560;2023-04-09T12:15:19;12.30;68.30
13458;DHT22;6801;53.018;11.560;2023-04-09T12:17:48;12.30;68.30
13458;DHT22;6801;53.018;11.560;2023-04-09T12:20:27;12.40;68.50
13458;DHT22;6801;53.018;11.560;2023-04-09T12:22:54;12.50;68.40
13458;DHT22;6801;53.018;11.560;2023-04-09T12:25:21;12.60;67.90
13458;DHT22;6801;53.018;11.560;2023-04-09T12:27:48;12.70;68.00
13458;DHT22;6801;53.018;11.560;2023-04-09T12:30:15;12.70;68.00
13458;DHT22;6801;53.018;11.560;2023-04-09T12:32:42;12.80;67.90
13458;DHT22;6801;53.018;11.560;2023-04-09T12:35:10;12.90;67.90
13458;DHT22;6801;53.018;11.560;2023-04-09T12:37:39;13.00;67.70
13458;DHT22;6801;53.018;11.560;2023-04-09T12:40:07;13.10;67.50
13458;DHT22;6801;53.018;11.560;2023-04-09T12:42:34;13.20;67.50
13458;DHT22;6801;53.018;11.560;2023-04-09T12:45:01;13.30;67.10
13458;DHT22;6801;53.018;11.560;2023-04-09T12:47:27;13.50;66.60
13458;DHT22;6801;53.018;11.560;2023-04-09T12:49:54;13.50;66.30
13458;DHT22;6801;53.018;11.560;2023-04-09T12:52:21;13.60;66.30
13458;DHT22;6801;53.018;11.560;2023-04-09T12:54:50;13.60;66.50
13458;DHT22;6801;53.018;11.560;2023-04-09T12:57:17;13.70;66.30
13458;DHT22;6801;53.018;11.560;2023-04-09T12:59:44;13.90;65.40
13458;DHT22;6801;53.018;11.560;2023-04-09T13:02:11;13.90;65.50
13458;DHT22;6801;53.018;11.560;2023-04-09T13:04:38;14.00;65.10
13458;DHT22;6801;53.018;11.560;2023-04-09T13:07:06;14.00;65.20
13458;DHT22;6801;53.018;11.560;2023-04-09T13:09:33;14.00;65.30
13458;DHT22;6801;53.018;11.560;2023-04-09T13:12:02;14.10;64.60
13458;DHT22;6801;53.018;11.560;2023-04-09T13:14:29;14.10;64.00
13458;DHT22;6801;53.018;11.560;2023-04-09T13:16:57;14.20;64.50
13458;DHT22;6801;53.018;11.560;2023-04-09T13:19:24;14.20;64.70
13458;DHT22;6801;53.018;11.560;2023-04-09T13:21:52;14.20;64.60
13458;DHT22;6801;53.018;11.560;2023-04-09T13:24:19;14.30;64.50
13458;DHT22;6801;53.018;11.560;2023-04-09T13:26:46;14.30;64.50
13458;DHT22;6801;53.018;11.560;2023-04-09T13:29:15;14.40;64.10
13458;DHT22;6801;53.018;11.560;2023-04-09T13:31:42;14.40;64.50
13458;DHT22;6801;53.018;11.560;2023-04-09T13:34:09;14.40;64.50
13458;DHT22;6801;53.018;11.560;2023-04-09T13:36:36;14.50;64.20
13458;DHT22;6801;53.018;11.560;2023-04-09T13:39:03;14.50;64.50
13458;DHT22;6801;53.018;11.560;2023-04-09T13:41:32;14.60;64.40
13458;DHT22;6801;53.018;11.560;2023-04-09T13:43:59;14.60;64.40
13458;DHT22;6801;53.018;11.560;2023-04-09T13:46:28;14.60;64.30
13458;DHT22;6801;53.018;11.560;2023-04-09T13:48:55;14.70;64.20
13458;DHT22;6801;53.018;11.560;2023-04-09T13:51:22;14.70;64.30
13458;DHT22;6801;53.018;11.560;2023-04-09T13:53:49;14.80;63.80
13458;DHT22;6801;53.018;11.560;2023-04-09T13:56:17;14.80;64.30
13458;DHT22;6801;53.018;11.560;2023-04-09T13:58:44;14.80;63.90
13458;DHT22;6801;53.018;11.560;2023-04-09T14:01:12;14.80;64.10
13458;DHT22;6801;53.018;11.560;2023-04-09T14:03:41;14.90;63.90
13458;DHT22;6801;53.018;11.560;2023-04-09T14:06:09;15.00;63.10
13458;DHT22;6801;53.018;11.560;2023-04-09T14:08:38;15.00;63.60
13458;DHT22;6801;53.018;11.560;2023-04-09T14:11:05;15.00;62.40
13458;DHT22;6801;53.018;11.560;2023-04-09T14:13:32;15.10;62.50
13458;DHT22;6801;53.018;11.560;2023-04-09T14:15:59;15.10;62.90
13458;DHT22;6801;53.018;11.560;2023-04-09T14:18:26;15.10;63.10
13458;DHT22;6801;53.018;11.560;2023-04-09T14:20:54;15.20;62.90
13458;DHT22;6801;53.018;11.560;2023-04-09T14:23:21;15.10;62.20
13458;DHT22;6801;53.018;11.560;2023-04-09T14:25:48;15.10;62.40
13458;DHT22;6801;53.018;11.560;2023-04-09T14:28:15;15.10;62.80
13458;DHT22;6801;53.018;11.560;2023-04-09T14:30:42;15.20;62.60
13458;DHT22;6801;53.018;11.560;2023-04-09T14:33:09;15.20;62.70
13458;DHT22;6801;53.018;11.560;2023-04-09T14:35:36;15.30;62.20
13458;DHT22;6801;53.018;11.560;2023-04-09T14:38:04;15.30;62.40
13458;DHT22;6801;53.018;11.560;2023-04-09T14:40:32;15.30;62.80
13458;DHT22;6801;53.018;11.560;2023-04-09T14:42:59;15.30;61.90
13458;DHT22;6801;53.018;11.560;2023-04-09T14:45:26;15.40;62.30
13458;DHT22;6801;53.018;11.560;2023-04-09T14:47:53;15.40;62.10
13458;DHT22;6801;53.018;11.560;2023-04-09T14:50:20;15.40;61.40
13458;DHT22;6801;53.018;11.560;2023-04-09T14:52:47;15.40;60.80
13458;DHT22;6801;53.018;11.560;2023-04-09T14:55:15;15.40;60.70
13458;DHT22;6801;53.018;11.560;2023-04-09T14:57:42;15.40;59.30
13458;DHT22;6801;53.018;11.560;2023-04-09T15:00:10;15.40;59.70
13458;DHT22;6801;53.018;11.560;2023-04-09T15:02:37;15.40;59.60
13458;DHT22;6801;53.018;11.560;2023-04-09T15:05:06;15.50;59.60
13458;DHT22;6801;53.018;11.560;2023-04-09T15:07:33;15.40;59.70
13458;DHT22;6801;53.018;11.560;2023-04-09T15:10:00;15.40;59.20
13458;DHT22;6801;53.018;11.560;2023-04-09T15:12:29;15.50;58.60
13458;DHT22;6801;53.018;11.560;2023-04-09T15:14:56;15.40;58.50
13458;DHT22;6801;53.018;11.560;2023-04-09T15:17:24;15.50;56.70
13458;DHT22;6801;53.018;11.560;2023-04-09T15:19:51;15.40;57.70
13458;DHT22;6801;53.018;11.560;2023-04-09T15:22:18;15.40;58.20
13458;DHT22;6801;53.018;11.560;2023-04-09T15:24:45;15.40;58.20
13458;DHT22;6801;53.018;11.560;2023-04-09T15:27:12;15.40;57.40
13458;DHT22;6801;53.018;11.560;2023-04-09T15:29:41;15.40;56.90
13458;DHT22;6801;53.018;11.560;2023-04-09T15:32:08;15.40;57.00
13458;DHT22;6801;53.018;11.560;2023-04-09T15:34:35;15.40;56.90
13458;DHT22;6801;53.018;11.560;2023-04-09T15:37:02;15.40;57.60
13458;DHT22;6801;53.018;11.560;2023-04-09T15:39:29;15.40;56.50
13458;DHT22;6801;53.018;11.560;2023-04-09T15:41:57;15.40;56.50
13458;DHT22;6801;53.018;11.560;2023-04-09T15:44:24;15.40;56.70
13458;DHT22;6801;53.018;11.560;2023-04-09T15:46:53;15.50;56.70
13458;DHT22;6801;53.018;11.560;2023-04-09T15:49:20;15.50;56.50
13458;DHT22;6801;53.018;11.560;2023-04-09T15:51:47;15.50;56.10
13458;DHT22;6801;53.018;11.560;2023-04-09T15:54:14;15.40;56.40